GLD1410 SBSP-SBRJ
Flight info
| Callsign | GLD1410 |
|---|---|
| Flight time | 0h 35m |
| Altitude | 3100 |
| Route | NIBRU UZ171 KEVUN |
| Aircraft | C700/M-SDFGIRY/S |
Departure
| Time | 2026-05-06 23:04 |
|---|---|
| Airport | Congonhas–Deputado Freitas Nobre Airport (SBSP) |
Arrival
| Time | 2026-05-06 23:39 |
|---|---|
| Airport | Santos Dumont Airport (SBRJ) |
| Time | Latitude | Longitude | Altitude | Speed | Heading |
|---|---|---|---|---|---|
| 2026-05-06 22:48 | -23.63333 | -46.65440 | 2595 ft | 0 kts | 50° |
| 2026-05-06 22:59 | -23.63331 | -46.65437 | 2595 ft | 3 kts | 53° |
| 2026-05-06 22:59 | -23.63323 | -46.65393 | 2593 ft | 9 kts | 85° |
| 2026-05-06 22:59 | -23.63274 | -46.65370 | 2594 ft | 14 kts | 329° |
| 2026-05-06 23:00 | -23.63166 | -46.65446 | 2595 ft | 20 kts | 327° |
| 2026-05-06 23:00 | -23.63042 | -46.65520 | 2594 ft | 20 kts | 349° |
| 2026-05-06 23:00 | -23.62914 | -46.65582 | 2598 ft | 21 kts | 327° |
| 2026-05-06 23:00 | -23.62789 | -46.65670 | 2593 ft | 22 kts | 327° |
| 2026-05-06 23:01 | -23.62658 | -46.65759 | 2596 ft | 23 kts | 328° |
| 2026-05-06 23:01 | -23.62519 | -46.65854 | 2596 ft | 24 kts | 326° |
| 2026-05-06 23:01 | -23.62375 | -46.65957 | 2595 ft | 25 kts | 327° |
| 2026-05-06 23:01 | -23.62222 | -46.66055 | 2590 ft | 26 kts | 335° |
| 2026-05-06 23:02 | -23.62168 | -46.66090 | 2593 ft | 0 kts | 327° |
| 2026-05-06 23:02 | -23.62128 | -46.66120 | 2593 ft | 15 kts | 325° |
| 2026-05-06 23:03 | -23.62051 | -46.66092 | 2590 ft | 16 kts | 105° |
| 2026-05-06 23:03 | -23.62233 | -46.65948 | 2594 ft | 67 kts | 146° |
| 2026-05-06 23:03 | -23.62854 | -46.65513 | 2608 ft | 142 kts | 145° |
| 2026-05-06 23:03 | -23.63812 | -46.64871 | 3102 ft | 177 kts | 143° |
| 2026-05-06 23:04 | -23.64846 | -46.63972 | 4037 ft | 201 kts | 126° |
| 2026-05-06 23:04 | -23.65512 | -46.62599 | 5285 ft | 209 kts | 113° |
| 2026-05-06 23:04 | -23.66195 | -46.61103 | 6231 ft | 233 kts | 116° |
| 2026-05-06 23:04 | -23.67030 | -46.59471 | 7098 ft | 259 kts | 117° |
| 2026-05-06 23:05 | -23.67935 | -46.57666 | 7998 ft | 281 kts | 117° |
| 2026-05-06 23:05 | -23.68861 | -46.55778 | 9320 ft | 284 kts | 115° |
| 2026-05-06 23:05 | -23.69800 | -46.53881 | 10519 ft | 293 kts | 117° |
| 2026-05-06 23:05 | -23.70804 | -46.51843 | 11303 ft | 316 kts | 116° |
| 2026-05-06 23:06 | -23.71503 | -46.49574 | 12636 ft | 316 kts | 102° |
| 2026-05-06 23:06 | -23.71716 | -46.47179 | 13947 ft | 321 kts | 90° |
| 2026-05-06 23:06 | -23.71443 | -46.44738 | 14970 ft | 329 kts | 82° |
| 2026-05-06 23:06 | -23.71085 | -46.42240 | 15941 ft | 338 kts | 83° |
| 2026-05-06 23:07 | -23.70730 | -46.39680 | 16970 ft | 344 kts | 83° |
| 2026-05-06 23:07 | -23.70358 | -46.37074 | 17968 ft | 351 kts | 83° |
| 2026-05-06 23:07 | -23.69980 | -46.34450 | 18867 ft | 359 kts | 83° |
| 2026-05-06 23:07 | -23.69593 | -46.31734 | 19704 ft | 365 kts | 83° |
| 2026-05-06 23:08 | -23.69200 | -46.28970 | 20560 ft | 372 kts | 83° |
| 2026-05-06 23:08 | -23.68798 | -46.26152 | 21396 ft | 380 kts | 83° |
| 2026-05-06 23:08 | -23.68385 | -46.23283 | 22226 ft | 386 kts | 83° |
| 2026-05-06 23:08 | -23.67968 | -46.20365 | 23040 ft | 393 kts | 83° |
| 2026-05-06 23:09 | -23.67544 | -46.17399 | 23798 ft | 399 kts | 84° |
| 2026-05-06 23:09 | -23.67110 | -46.14384 | 24498 ft | 405 kts | 84° |
| 2026-05-06 23:09 | -23.66671 | -46.11331 | 25194 ft | 410 kts | 84° |
| 2026-05-06 23:09 | -23.66233 | -46.08277 | 25892 ft | 416 kts | 84° |
| 2026-05-06 23:10 | -23.65786 | -46.05137 | 26568 ft | 422 kts | 84° |
| 2026-05-06 23:10 | -23.65327 | -46.01952 | 27201 ft | 428 kts | 84° |
| 2026-05-06 23:10 | -23.64861 | -45.98724 | 27863 ft | 433 kts | 85° |
| 2026-05-06 23:10 | -23.64391 | -45.95457 | 28514 ft | 439 kts | 85° |
| 2026-05-06 23:11 | -23.63916 | -45.92152 | 29171 ft | 444 kts | 85° |
| 2026-05-06 23:11 | -23.63431 | -45.88800 | 29801 ft | 450 kts | 85° |
| 2026-05-06 23:11 | -23.62938 | -45.85408 | 30412 ft | 456 kts | 85° |
| 2026-05-06 23:11 | -23.62441 | -45.81973 | 30969 ft | 461 kts | 86° |
| 2026-05-06 23:12 | -23.61943 | -45.78524 | 31120 ft | 476 kts | 86° |
| 2026-05-06 23:12 | -23.61418 | -45.74896 | 31134 ft | 494 kts | 85° |
| 2026-05-06 23:12 | -23.60867 | -45.71131 | 31137 ft | 511 kts | 85° |
| 2026-05-06 23:12 | -23.60298 | -45.67259 | 31141 ft | 523 kts | 85° |
| 2026-05-06 23:13 | -23.59721 | -45.63323 | 31138 ft | 527 kts | 85° |
| 2026-05-06 23:13 | -23.58563 | -45.55425 | 31139 ft | 528 kts | 85° |
| 2026-05-06 23:14 | -23.57399 | -45.47531 | 31140 ft | 528 kts | 84° |
| 2026-05-06 23:14 | -23.55781 | -45.39734 | 31143 ft | 532 kts | 81° |
| 2026-05-06 23:15 | -23.54141 | -45.31891 | 31149 ft | 528 kts | 81° |
| 2026-05-06 23:15 | -23.52464 | -45.24072 | 31140 ft | 530 kts | 80° |
| 2026-05-06 23:16 | -23.50815 | -45.16257 | 31058 ft | 526 kts | 81° |
| 2026-05-06 23:16 | -23.50022 | -45.12428 | 30712 ft | 511 kts | 81° |
| 2026-05-06 23:16 | -23.49227 | -45.08696 | 30368 ft | 501 kts | 80° |
| 2026-05-06 23:16 | -23.48432 | -45.05079 | 29973 ft | 496 kts | 80° |
| 2026-05-06 23:17 | -23.47644 | -45.01432 | 29555 ft | 492 kts | 80° |
| 2026-05-06 23:17 | -23.46896 | -44.97811 | 29155 ft | 489 kts | 80° |
| 2026-05-06 23:17 | -23.46113 | -44.94217 | 28742 ft | 486 kts | 79° |
| 2026-05-06 23:17 | -23.45293 | -44.90659 | 28355 ft | 483 kts | 79° |
| 2026-05-06 23:18 | -23.44498 | -44.87122 | 27973 ft | 479 kts | 79° |
| 2026-05-06 23:18 | -23.43993 | -44.84794 | 27726 ft | 476 kts | 79° |
| 2026-05-06 23:18 | -23.42970 | -44.80132 | 27243 ft | 471 kts | 79° |
| 2026-05-06 23:18 | -23.42202 | -44.76727 | 26892 ft | 467 kts | 78° |
| 2026-05-06 23:19 | -23.41435 | -44.73296 | 26533 ft | 465 kts | 79° |
| 2026-05-06 23:19 | -23.40679 | -44.69885 | 26199 ft | 462 kts | 78° |
| 2026-05-06 23:19 | -23.39922 | -44.66491 | 25859 ft | 460 kts | 78° |
| 2026-05-06 23:19 | -23.39167 | -44.63117 | 25532 ft | 458 kts | 78° |
| 2026-05-06 23:20 | -23.38669 | -44.60893 | 25327 ft | 456 kts | 78° |
| 2026-05-06 23:20 | -23.37921 | -44.57556 | 25010 ft | 453 kts | 78° |
| 2026-05-06 23:20 | -23.37179 | -44.54242 | 24697 ft | 450 kts | 78° |
| 2026-05-06 23:20 | -23.36199 | -44.49876 | 24285 ft | 446 kts | 77° |
| 2026-05-06 23:21 | -23.35465 | -44.46610 | 23989 ft | 443 kts | 77° |
| 2026-05-06 23:21 | -23.34973 | -44.44417 | 23782 ft | 441 kts | 77° |
| 2026-05-06 23:21 | -23.33647 | -44.40266 | 23308 ft | 438 kts | 65° |
| 2026-05-06 23:21 | -23.32341 | -44.37282 | 22957 ft | 435 kts | 65° |
| 2026-05-06 23:22 | -23.31499 | -44.35306 | 22731 ft | 434 kts | 66° |
| 2026-05-06 23:22 | -23.29811 | -44.31334 | 22292 ft | 432 kts | 66° |
| 2026-05-06 23:22 | -23.28552 | -44.28422 | 21965 ft | 430 kts | 65° |
| 2026-05-06 23:22 | -23.27284 | -44.25487 | 21645 ft | 428 kts | 66° |
| 2026-05-06 23:23 | -23.26435 | -44.23509 | 21435 ft | 426 kts | 66° |
| 2026-05-06 23:23 | -23.25186 | -44.20602 | 21118 ft | 423 kts | 66° |
| 2026-05-06 23:23 | -23.23954 | -44.17746 | 20816 ft | 422 kts | 66° |
| 2026-05-06 23:23 | -23.22295 | -44.13898 | 20414 ft | 419 kts | 66° |
| 2026-05-06 23:24 | -23.21477 | -44.12004 | 20224 ft | 417 kts | 66° |
| 2026-05-06 23:24 | -23.20248 | -44.09158 | 19934 ft | 415 kts | 66° |
| 2026-05-06 23:24 | -23.18976 | -44.06348 | 19643 ft | 413 kts | 64° |
| 2026-05-06 23:24 | -23.17688 | -44.03568 | 19313 ft | 411 kts | 65° |
| 2026-05-06 23:25 | -23.16409 | -44.00752 | 18414 ft | 416 kts | 65° |
| 2026-05-06 23:25 | -23.15173 | -43.97941 | 17394 ft | 409 kts | 67° |
| 2026-05-06 23:25 | -23.14010 | -43.95195 | 16406 ft | 403 kts | 66° |
| 2026-05-06 23:25 | -23.12831 | -43.92462 | 15457 ft | 396 kts | 65° |
| 2026-05-06 23:26 | -23.11672 | -43.89771 | 14528 ft | 390 kts | 65° |
| 2026-05-06 23:26 | -23.10541 | -43.87118 | 13584 ft | 385 kts | 65° |
| 2026-05-06 23:26 | -23.09424 | -43.84499 | 12576 ft | 379 kts | 65° |
| 2026-05-06 23:26 | -23.08318 | -43.81923 | 11601 ft | 373 kts | 65° |
| 2026-05-06 23:27 | -23.07232 | -43.79393 | 10671 ft | 367 kts | 65° |
| 2026-05-06 23:27 | -23.06183 | -43.76944 | 10417 ft | 343 kts | 65° |
| 2026-05-06 23:27 | -23.05221 | -43.74700 | 10444 ft | 314 kts | 65° |
| 2026-05-06 23:27 | -23.04342 | -43.72657 | 10438 ft | 292 kts | 65° |
| 2026-05-06 23:28 | -23.03539 | -43.70785 | 10435 ft | 249 kts | 65° |
| 2026-05-06 23:28 | -23.02855 | -43.69194 | 10244 ft | 233 kts | 64° |
| 2026-05-06 23:28 | -23.02118 | -43.67517 | 9940 ft | 261 kts | 64° |
| 2026-05-06 23:28 | -23.01324 | -43.65710 | 9616 ft | 261 kts | 64° |
| 2026-05-06 23:29 | -23.00567 | -43.63972 | 9302 ft | 249 kts | 64° |
| 2026-05-06 23:29 | -22.99838 | -43.62306 | 8990 ft | 240 kts | 64° |
| 2026-05-06 23:29 | -22.99113 | -43.60658 | 8330 ft | 246 kts | 64° |
| 2026-05-06 23:29 | -22.98366 | -43.58960 | 7654 ft | 252 kts | 64° |
| 2026-05-06 23:30 | -22.97607 | -43.57233 | 6995 ft | 255 kts | 64° |
| 2026-05-06 23:30 | -22.96852 | -43.55514 | 6362 ft | 256 kts | 64° |
| 2026-05-06 23:30 | -22.96097 | -43.53798 | 6060 ft | 245 kts | 64° |
| 2026-05-06 23:30 | -22.95398 | -43.52213 | 6040 ft | 222 kts | 64° |
| 2026-05-06 23:31 | -22.94756 | -43.50751 | 6033 ft | 211 kts | 64° |
| 2026-05-06 23:31 | -22.94135 | -43.49310 | 6041 ft | 211 kts | 65° |
| 2026-05-06 23:31 | -22.93527 | -43.47848 | 6035 ft | 213 kts | 65° |
| 2026-05-06 23:31 | -22.92918 | -43.46388 | 6028 ft | 213 kts | 65° |
| 2026-05-06 23:32 | -22.92296 | -43.44933 | 6035 ft | 213 kts | 64° |
| 2026-05-06 23:32 | -22.91668 | -43.43458 | 5793 ft | 222 kts | 64° |
| 2026-05-06 23:32 | -22.91014 | -43.41915 | 5138 ft | 233 kts | 65° |
| 2026-05-06 23:32 | -22.90329 | -43.40292 | 4465 ft | 239 kts | 64° |
| 2026-05-06 23:33 | -22.89628 | -43.38647 | 3960 ft | 237 kts | 65° |
| 2026-05-06 23:33 | -22.88959 | -43.37068 | 3714 ft | 226 kts | 65° |
| 2026-05-06 23:33 | -22.88317 | -43.35547 | 3445 ft | 218 kts | 65° |
| 2026-05-06 23:33 | -22.87807 | -43.34029 | 3180 ft | 211 kts | 71° |
| 2026-05-06 23:34 | -22.87346 | -43.32540 | 2946 ft | 203 kts | 70° |
| 2026-05-06 23:34 | -22.86893 | -43.31156 | 2704 ft | 188 kts | 70° |
| 2026-05-06 23:34 | -22.86472 | -43.29853 | 2480 ft | 178 kts | 70° |
| 2026-05-06 23:34 | -22.86081 | -43.28632 | 2266 ft | 169 kts | 70° |
| 2026-05-06 23:35 | -22.85698 | -43.27449 | 2064 ft | 165 kts | 71° |
| 2026-05-06 23:35 | -22.85501 | -43.26271 | 1945 ft | 151 kts | 92° |
| 2026-05-06 23:35 | -22.85658 | -43.25120 | 1720 ft | 161 kts | 99° |
| 2026-05-06 23:35 | -22.85817 | -43.23949 | 1386 ft | 153 kts | 98° |
| 2026-05-06 23:36 | -22.85968 | -43.22835 | 1115 ft | 141 kts | 99° |
| 2026-05-06 23:36 | -22.86105 | -43.21891 | 1104 ft | 120 kts | 99° |
| 2026-05-06 23:36 | -22.86232 | -43.20970 | 1108 ft | 121 kts | 100° |
| 2026-05-06 23:36 | -22.86367 | -43.20048 | 1095 ft | 128 kts | 99° |
| 2026-05-06 23:37 | -22.86492 | -43.19119 | 1048 ft | 129 kts | 98° |
| 2026-05-06 23:37 | -22.86642 | -43.18182 | 1016 ft | 131 kts | 101° |
| 2026-05-06 23:37 | -22.86858 | -43.17305 | 1029 ft | 118 kts | 115° |
| 2026-05-06 23:37 | -22.87477 | -43.16734 | 783 ft | 121 kts | 154° |
| 2026-05-06 23:38 | -22.88247 | -43.16453 | 500 ft | 113 kts | 168° |
| 2026-05-06 23:38 | -22.89020 | -43.16386 | 344 ft | 113 kts | 179° |
| 2026-05-06 23:38 | -22.89797 | -43.16352 | 168 ft | 107 kts | 178° |
| 2026-05-06 23:38 | -22.90555 | -43.16315 | 34 ft | 108 kts | 174° |
| 2026-05-06 23:39 | -22.91108 | -43.16279 | 15 ft | 31 kts | 176° |
| 2026-05-06 23:39 | -22.91282 | -43.16270 | 14 ft | 20 kts | 180° |
| 2026-05-06 23:39 | -22.91340 | -43.16312 | 13 ft | 9 kts | 249° |
| 2026-05-06 23:39 | -22.91342 | -43.16375 | 14 ft | 8 kts | 263° |
| 2026-05-06 23:40 | -22.91338 | -43.16422 | 16 ft | 5 kts | 293° |
| 2026-05-06 23:40 | -22.91302 | -43.16440 | 16 ft | 7 kts | 357° |
| 2026-05-06 23:40 | -22.91247 | -43.16443 | 16 ft | 9 kts | 356° |
| 2026-05-06 23:40 | -22.91174 | -43.16448 | 16 ft | 12 kts | 356° |
| 2026-05-06 23:41 | -22.91084 | -43.16454 | 16 ft | 14 kts | 356° |
| 2026-05-06 23:41 | -22.90978 | -43.16461 | 17 ft | 17 kts | 356° |
| 2026-05-06 23:41 | -22.90856 | -43.16470 | 16 ft | 13 kts | 356° |
| 2026-05-06 23:41 | -22.90816 | -43.16486 | 17 ft | 7 kts | 295° |
| 2026-05-06 23:42 | -22.90817 | -43.16544 | 16 ft | 9 kts | 268° |
| 2026-05-06 23:42 | -22.90820 | -43.16608 | 19 ft | 1 kts | 266° |
| 2026-05-06 23:42 | -22.90820 | -43.16610 | 19 ft | 0 kts | 266° |